sensor_id;sensor_type;location;lat;lon;timestamp;P1;durP1;ratioP1;P2;durP2;ratioP2
4080;SDS011;2055;50.074;8.436;2023-04-15T00:00:14;0.80;;;0.70;;
4080;SDS011;2055;50.074;8.436;2023-04-15T00:02:41;0.70;;;0.60;;
4080;SDS011;2055;50.074;8.436;2023-04-15T00:05:08;0.70;;;0.60;;
4080;SDS011;2055;50.074;8.436;2023-04-15T00:07:34;0.70;;;0.60;;
4080;SDS011;2055;50.074;8.436;2023-04-15T00:10:00;0.70;;;0.60;;
4080;SDS011;2055;50.074;8.436;2023-04-15T00:12:26;0.70;;;0.60;;
4080;SDS011;2055;50.074;8.436;2023-04-15T00:14:52;0.70;;;0.60;;
4080;SDS011;2055;50.074;8.436;2023-04-15T00:17:18;0.63;;;0.52;;
4080;SDS011;2055;50.074;8.436;2023-04-15T00:19:44;0.60;;;0.50;;
4080;SDS011;2055;50.074;8.436;2023-04-15T00:22:10;0.80;;;0.70;;
4080;SDS011;2055;50.074;8.436;2023-04-15T00:24:36;0.68;;;0.57;;
4080;SDS011;2055;50.074;8.436;2023-04-15T00:27:02;0.80;;;0.70;;
4080;SDS011;2055;50.074;8.436;2023-04-15T00:29:28;0.70;;;0.60;;
4080;SDS011;2055;50.074;8.436;2023-04-15T00:31:54;1.15;;;1.05;;
4080;SDS011;2055;50.074;8.436;2023-04-15T00:34:20;0.70;;;0.60;;
4080;SDS011;2055;50.074;8.436;2023-04-15T00:36:47;0.75;;;0.65;;
4080;SDS011;2055;50.074;8.436;2023-04-15T00:39:12;0.80;;;0.70;;
4080;SDS011;2055;50.074;8.436;2023-04-15T00:41:38;0.70;;;0.60;;
4080;SDS011;2055;50.074;8.436;2023-04-15T00:44:07;0.70;;;0.60;;
4080;SDS011;2055;50.074;8.436;2023-04-15T00:46:34;0.70;;;0.60;;
4080;SDS011;2055;50.074;8.436;2023-04-15T00:49:02;0.80;;;0.70;;
4080;SDS011;2055;50.074;8.436;2023-04-15T00:51:29;0.70;;;0.60;;
4080;SDS011;2055;50.074;8.436;2023-04-15T00:53:57;0.60;;;0.50;;
4080;SDS011;2055;50.074;8.436;2023-04-15T00:56:23;0.70;;;0.60;;
4080;SDS011;2055;50.074;8.436;2023-04-15T00:58:50;0.67;;;0.57;;
4080;SDS011;2055;50.074;8.436;2023-04-15T01:01:18;0.60;;;0.50;;
4080;SDS011;2055;50.074;8.436;2023-04-15T01:03:45;0.60;;;0.50;;
4080;SDS011;2055;50.074;8.436;2023-04-15T01:06:13;0.60;;;0.50;;
4080;SDS011;2055;50.074;8.436;2023-04-15T01:08:39;0.60;;;0.50;;
4080;SDS011;2055;50.074;8.436;2023-04-15T01:11:05;0.70;;;0.60;;
4080;SDS011;2055;50.074;8.436;2023-04-15T01:13:32;0.70;;;0.60;;
4080;SDS011;2055;50.074;8.436;2023-04-15T01:15:58;0.70;;;0.60;;
4080;SDS011;2055;50.074;8.436;2023-04-15T01:18:24;0.70;;;0.60;;
4080;SDS011;2055;50.074;8.436;2023-04-15T01:20:50;0.60;;;0.50;;
4080;SDS011;2055;50.074;8.436;2023-04-15T01:23:16;0.70;;;0.60;;
4080;SDS011;2055;50.074;8.436;2023-04-15T01:25:42;0.60;;;0.50;;
4080;SDS011;2055;50.074;8.436;2023-04-15T01:28:08;0.75;;;0.65;;
4080;SDS011;2055;50.074;8.436;2023-04-15T01:30:34;0.70;;;0.60;;
4080;SDS011;2055;50.074;8.436;2023-04-15T01:33:00;0.60;;;0.50;;
4080;SDS011;2055;50.074;8.436;2023-04-15T01:35:26;0.70;;;0.60;;
4080;SDS011;2055;50.074;8.436;2023-04-15T01:37:52;0.60;;;0.50;;
4080;SDS011;2055;50.074;8.436;2023-04-15T01:40:18;0.60;;;0.50;;
4080;SDS011;2055;50.074;8.436;2023-04-15T01:42:44;0.50;;;0.40;;
4080;SDS011;2055;50.074;8.436;2023-04-15T01:45:10;0.50;;;0.40;;
4080;SDS011;2055;50.074;8.436;2023-04-15T01:47:37;0.60;;;0.50;;
4080;SDS011;2055;50.074;8.436;2023-04-15T01:50:02;0.60;;;0.50;;
4080;SDS011;2055;50.074;8.436;2023-04-15T01:52:28;0.60;;;0.50;;
4080;SDS011;2055;50.074;8.436;2023-04-15T01:54:54;0.50;;;0.40;;
4080;SDS011;2055;50.074;8.436;2023-04-15T01:57:20;0.50;;;0.40;;
4080;SDS011;2055;50.074;8.436;2023-04-15T01:59:45;0.50;;;0.40;;
4080;SDS011;2055;50.074;8.436;2023-04-15T02:02:11;0.80;;;0.70;;
4080;SDS011;2055;50.074;8.436;2023-04-15T02:04:36;0.50;;;0.40;;
4080;SDS011;2055;50.074;8.436;2023-04-15T02:07:02;0.60;;;0.50;;
4080;SDS011;2055;50.074;8.436;2023-04-15T02:09:27;0.60;;;0.50;;
4080;SDS011;2055;50.074;8.436;2023-04-15T02:11:53;0.50;;;0.40;;
4080;SDS011;2055;50.074;8.436;2023-04-15T02:14:19;0.60;;;0.50;;
4080;SDS011;2055;50.074;8.436;2023-04-15T02:16:44;1.47;;;0.97;;
4080;SDS011;2055;50.074;8.436;2023-04-15T02:19:10;0.50;;;0.40;;
4080;SDS011;2055;50.074;8.436;2023-04-15T02:21:36;0.50;;;0.40;;
4080;SDS011;2055;50.074;8.436;2023-04-15T02:24:02;0.50;;;0.40;;
4080;SDS011;2055;50.074;8.436;2023-04-15T02:26:28;0.50;;;0.40;;
4080;SDS011;2055;50.074;8.436;2023-04-15T02:28:56;0.75;;;0.70;;
4080;SDS011;2055;50.074;8.436;2023-04-15T02:31:22;0.50;;;0.40;;
4080;SDS011;2055;50.074;8.436;2023-04-15T02:33:47;0.50;;;0.40;;
4080;SDS011;2055;50.074;8.436;2023-04-15T02:36:14;0.50;;;0.40;;
4080;SDS011;2055;50.074;8.436;2023-04-15T02:38:39;0.50;;;0.40;;
4080;SDS011;2055;50.074;8.436;2023-04-15T02:41:07;0.57;;;0.47;;
4080;SDS011;2055;50.074;8.436;2023-04-15T02:43:36;0.40;;;0.40;;
4080;SDS011;2055;50.074;8.436;2023-04-15T02:46:03;0.50;;;0.40;;
4080;SDS011;2055;50.074;8.436;2023-04-15T02:48:29;0.50;;;0.40;;
4080;SDS011;2055;50.074;8.436;2023-04-15T02:51:16;0.50;;;0.40;;
4080;SDS011;2055;50.074;8.436;2023-04-15T02:53:44;0.60;;;0.50;;
4080;SDS011;2055;50.074;8.436;2023-04-15T02:56:10;0.50;;;0.40;;
4080;SDS011;2055;50.074;8.436;2023-04-15T02:58:36;0.50;;;0.40;;
4080;SDS011;2055;50.074;8.436;2023-04-15T03:01:03;0.50;;;0.40;;
4080;SDS011;2055;50.074;8.436;2023-04-15T03:03:28;0.53;;;0.43;;
4080;SDS011;2055;50.074;8.436;2023-04-15T03:05:54;0.50;;;0.40;;
4080;SDS011;2055;50.074;8.436;2023-04-15T03:08:20;0.60;;;0.50;;
4080;SDS011;2055;50.074;8.436;2023-04-15T03:10:46;0.50;;;0.40;;
4080;SDS011;2055;50.074;8.436;2023-04-15T03:13:11;0.50;;;0.40;;
4080;SDS011;2055;50.074;8.436;2023-04-15T03:15:37;1.27;;;1.00;;
4080;SDS011;2055;50.074;8.436;2023-04-15T03:18:03;0.50;;;0.40;;
4080;SDS011;2055;50.074;8.436;2023-04-15T03:20:28;0.60;;;0.50;;
4080;SDS011;2055;50.074;8.436;2023-04-15T03:22:54;0.60;;;0.50;;
4080;SDS011;2055;50.074;8.436;2023-04-15T03:25:19;0.50;;;0.40;;
4080;SDS011;2055;50.074;8.436;2023-04-15T03:27:45;0.50;;;0.40;;
4080;SDS011;2055;50.074;8.436;2023-04-15T03:30:11;0.50;;;0.40;;
4080;SDS011;2055;50.074;8.436;2023-04-15T03:32:37;0.50;;;0.40;;
4080;SDS011;2055;50.074;8.436;2023-04-15T03:35:03;0.50;;;0.40;;
4080;SDS011;2055;50.074;8.436;2023-04-15T03:37:28;0.50;;;0.40;;
4080;SDS011;2055;50.074;8.436;2023-04-15T03:39:54;0.50;;;0.40;;
4080;SDS011;2055;50.074;8.436;2023-04-15T03:42:20;0.50;;;0.40;;
4080;SDS011;2055;50.074;8.436;2023-04-15T03:44:46;0.87;;;0.77;;
4080;SDS011;2055;50.074;8.436;2023-04-15T03:47:11;0.50;;;0.40;;
4080;SDS011;2055;50.074;8.436;2023-04-15T03:49:36;0.50;;;0.40;;
4080;SDS011;2055;50.074;8.436;2023-04-15T03:52:02;0.50;;;0.40;;
4080;SDS011;2055;50.074;8.436;2023-04-15T03:54:28;0.50;;;0.40;;
4080;SDS011;2055;50.074;8.436;2023-04-15T03:56:53;0.60;;;0.50;;
4080;SDS011;2055;50.074;8.436;2023-04-15T03:59:19;0.50;;;0.40;;
4080;SDS011;2055;50.074;8.436;2023-04-15T04:01:45;0.50;;;0.40;;
4080;SDS011;2055;50.074;8.436;2023-04-15T04:04:10;0.50;;;0.40;;
4080;SDS011;2055;50.074;8.436;2023-04-15T04:06:36;0.30;;;0.30;;
4080;SDS011;2055;50.074;8.436;2023-04-15T04:09:01;0.50;;;0.40;;
4080;SDS011;2055;50.074;8.436;2023-04-15T04:11:27;0.37;;;0.33;;
4080;SDS011;2055;50.074;8.436;2023-04-15T04:13:53;0.50;;;0.40;;
4080;SDS011;2055;50.074;8.436;2023-04-15T04:16:18;0.50;;;0.40;;
4080;SDS011;2055;50.074;8.436;2023-04-15T04:18:44;0.50;;;0.40;;
4080;SDS011;2055;50.074;8.436;2023-04-15T04:21:09;0.50;;;0.40;;
4080;SDS011;2055;50.074;8.436;2023-04-15T04:23:35;0.50;;;0.40;;
4080;SDS011;2055;50.074;8.436;2023-04-15T04:26:01;0.50;;;0.40;;
4080;SDS011;2055;50.074;8.436;2023-04-15T04:28:26;0.50;;;0.40;;
4080;SDS011;2055;50.074;8.436;2023-04-15T04:30:52;0.50;;;0.40;;
4080;SDS011;2055;50.074;8.436;2023-04-15T04:33:17;0.50;;;0.40;;
4080;SDS011;2055;50.074;8.436;2023-04-15T04:35:43;0.50;;;0.40;;
4080;SDS011;2055;50.074;8.436;2023-04-15T04:38:08;0.60;;;0.50;;
4080;SDS011;2055;50.074;8.436;2023-04-15T04:40:34;0.50;;;0.40;;
4080;SDS011;2055;50.074;8.436;2023-04-15T04:43:00;0.50;;;0.40;;
4080;SDS011;2055;50.074;8.436;2023-04-15T04:45:26;0.50;;;0.40;;
4080;SDS011;2055;50.074;8.436;2023-04-15T04:47:51;0.50;;;0.40;;
4080;SDS011;2055;50.074;8.436;2023-04-15T04:50:17;0.50;;;0.40;;
4080;SDS011;2055;50.074;8.436;2023-04-15T04:52:42;0.50;;;0.40;;
4080;SDS011;2055;50.074;8.436;2023-04-15T04:55:08;0.50;;;0.40;;
4080;SDS011;2055;50.074;8.436;2023-04-15T04:57:34;0.50;;;0.40;;
4080;SDS011;2055;50.074;8.436;2023-04-15T05:00:00;0.50;;;0.40;;
4080;SDS011;2055;50.074;8.436;2023-04-15T05:02:27;0.30;;;0.30;;
4080;SDS011;2055;50.074;8.436;2023-04-15T05:04:52;0.37;;;0.33;;
4080;SDS011;2055;50.074;8.436;2023-04-15T05:07:18;0.50;;;0.40;;
4080;SDS011;2055;50.074;8.436;2023-04-15T05:09:44;0.50;;;0.40;;
4080;SDS011;2055;50.074;8.436;2023-04-15T05:12:10;0.50;;;0.40;;
4080;SDS011;2055;50.074;8.436;2023-04-15T05:14:39;0.50;;;0.40;;
4080;SDS011;2055;50.074;8.436;2023-04-15T05:17:05;0.50;;;0.40;;
4080;SDS011;2055;50.074;8.436;2023-04-15T05:19:31;0.50;;;0.40;;
4080;SDS011;2055;50.074;8.436;2023-04-15T05:21:56;0.50;;;0.40;;
4080;SDS011;2055;50.074;8.436;2023-04-15T05:24:22;0.50;;;0.40;;
4080;SDS011;2055;50.074;8.436;2023-04-15T05:26:47;0.50;;;0.40;;
4080;SDS011;2055;50.074;8.436;2023-04-15T05:29:13;0.60;;;0.50;;
4080;SDS011;2055;50.074;8.436;2023-04-15T05:31:38;0.93;;;0.83;;
4080;SDS011;2055;50.074;8.436;2023-04-15T05:34:04;0.60;;;0.50;;
4080;SDS011;2055;50.074;8.436;2023-04-15T05:36:31;0.80;;;0.70;;
4080;SDS011;2055;50.074;8.436;2023-04-15T05:38:56;0.63;;;0.53;;
4080;SDS011;2055;50.074;8.436;2023-04-15T05:41:22;0.50;;;0.40;;
4080;SDS011;2055;50.074;8.436;2023-04-15T05:43:48;0.53;;;0.43;;
4080;SDS011;2055;50.074;8.436;2023-04-15T05:46:13;0.60;;;0.50;;
4080;SDS011;2055;50.074;8.436;2023-04-15T05:48:39;0.60;;;0.50;;
4080;SDS011;2055;50.074;8.436;2023-04-15T05:51:04;0.60;;;0.50;;
4080;SDS011;2055;50.074;8.436;2023-04-15T05:53:30;0.50;;;0.40;;
4080;SDS011;2055;50.074;8.436;2023-04-15T05:55:56;0.63;;;0.53;;
4080;SDS011;2055;50.074;8.436;2023-04-15T05:58:21;0.50;;;0.40;;
4080;SDS011;2055;50.074;8.436;2023-04-15T06:00:47;0.50;;;0.40;;
4080;SDS011;2055;50.074;8.436;2023-04-15T06:03:12;0.57;;;0.47;;
4080;SDS011;2055;50.074;8.436;2023-04-15T06:05:38;0.50;;;0.40;;
4080;SDS011;2055;50.074;8.436;2023-04-15T06:08:04;0.50;;;0.40;;
4080;SDS011;2055;50.074;8.436;2023-04-15T06:10:30;0.50;;;0.40;;
4080;SDS011;2055;50.074;8.436;2023-04-15T06:13:00;0.50;;;0.40;;
4080;SDS011;2055;50.074;8.436;2023-04-15T06:15:29;0.50;;;0.40;;
4080;SDS011;2055;50.074;8.436;2023-04-15T06:17:55;0.70;;;0.60;;
4080;SDS011;2055;50.074;8.436;2023-04-15T06:20:20;0.60;;;0.50;;
4080;SDS011;2055;50.074;8.436;2023-04-15T06:22:46;0.60;;;0.50;;
4080;SDS011;2055;50.074;8.436;2023-04-15T06:25:11;0.60;;;0.50;;
4080;SDS011;2055;50.074;8.436;2023-04-15T06:27:38;2.45;;;1.63;;
4080;SDS011;2055;50.074;8.436;2023-04-15T06:30:04;0.80;;;0.70;;
4080;SDS011;2055;50.074;8.436;2023-04-15T06:32:30;1.13;;;1.02;;
4080;SDS011;2055;50.074;8.436;2023-04-15T06:34:56;0.68;;;0.57;;
4080;SDS011;2055;50.074;8.436;2023-04-15T06:37:22;0.50;;;0.40;;
4080;SDS011;2055;50.074;8.436;2023-04-15T06:39:47;0.70;;;0.60;;
4080;SDS011;2055;50.074;8.436;2023-04-15T06:42:13;0.70;;;0.60;;
4080;SDS011;2055;50.074;8.436;2023-04-15T06:44:40;0.70;;;0.60;;
4080;SDS011;2055;50.074;8.436;2023-04-15T06:47:06;0.70;;;0.60;;
4080;SDS011;2055;50.074;8.436;2023-04-15T06:49:31;0.60;;;0.50;;
4080;SDS011;2055;50.074;8.436;2023-04-15T06:51:57;0.68;;;0.60;;
4080;SDS011;2055;50.074;8.436;2023-04-15T06:54:24;0.60;;;0.50;;
4080;SDS011;2055;50.074;8.436;2023-04-15T06:56:50;0.70;;;0.60;;
4080;SDS011;2055;50.074;8.436;2023-04-15T06:59:16;1.10;;;1.00;;
4080;SDS011;2055;50.074;8.436;2023-04-15T07:01:42;0.97;;;0.87;;
4080;SDS011;2055;50.074;8.436;2023-04-15T07:04:07;0.60;;;0.50;;
4080;SDS011;2055;50.074;8.436;2023-04-15T07:06:33;0.60;;;0.50;;
4080;SDS011;2055;50.074;8.436;2023-04-15T07:08:59;0.77;;;0.68;;
4080;SDS011;2055;50.074;8.436;2023-04-15T07:11:25;1.30;;;0.60;;
4080;SDS011;2055;50.074;8.436;2023-04-15T07:13:51;1.57;;;1.47;;
4080;SDS011;2055;50.074;8.436;2023-04-15T07:16:17;0.70;;;0.60;;
4080;SDS011;2055;50.074;8.436;2023-04-15T07:18:42;0.60;;;0.50;;
4080;SDS011;2055;50.074;8.436;2023-04-15T07:21:08;0.80;;;0.70;;
4080;SDS011;2055;50.074;8.436;2023-04-15T07:23:33;0.60;;;0.50;;
4080;SDS011;2055;50.074;8.436;2023-04-15T07:25:59;0.70;;;0.60;;
4080;SDS011;2055;50.074;8.436;2023-04-15T07:28:25;0.60;;;0.50;;
4080;SDS011;2055;50.074;8.436;2023-04-15T07:30:51;0.70;;;0.60;;
4080;SDS011;2055;50.074;8.436;2023-04-15T07:33:16;0.70;;;0.60;;
4080;SDS011;2055;50.074;8.436;2023-04-15T07:35:42;1.67;;;1.57;;
4080;SDS011;2055;50.074;8.436;2023-04-15T07:38:07;0.60;;;0.50;;
4080;SDS011;2055;50.074;8.436;2023-04-15T07:40:33;0.70;;;0.60;;
4080;SDS011;2055;50.074;8.436;2023-04-15T07:42:58;0.60;;;0.50;;
4080;SDS011;2055;50.074;8.436;2023-04-15T07:45:24;0.90;;;0.80;;
4080;SDS011;2055;50.074;8.436;2023-04-15T07:47:49;0.90;;;0.90;;
4080;SDS011;2055;50.074;8.436;2023-04-15T07:50:16;0.63;;;0.52;;
4080;SDS011;2055;50.074;8.436;2023-04-15T07:52:43;2.78;;;1.35;;
4080;SDS011;2055;50.074;8.436;2023-04-15T07:55:09;0.60;;;0.50;;
4080;SDS011;2055;50.074;8.436;2023-04-15T07:57:35;0.60;;;0.50;;
4080;SDS011;2055;50.074;8.436;2023-04-15T08:00:01;0.68;;;0.57;;
4080;SDS011;2055;50.074;8.436;2023-04-15T08:02:31;1.33;;;1.23;;
4080;SDS011;2055;50.074;8.436;2023-04-15T08:04:57;7.50;;;1.50;;
4080;SDS011;2055;50.074;8.436;2023-04-15T08:07:23;1.00;;;0.90;;
4080;SDS011;2055;50.074;8.436;2023-04-15T08:09:49;4.90;;;1.60;;
4080;SDS011;2055;50.074;8.436;2023-04-15T08:12:15;0.90;;;0.80;;
4080;SDS011;2055;50.074;8.436;2023-04-15T08:14:40;0.63;;;0.53;;
4080;SDS011;2055;50.074;8.436;2023-04-15T08:17:06;0.97;;;0.87;;
4080;SDS011;2055;50.074;8.436;2023-04-15T08:19:32;5.80;;;1.87;;
4080;SDS011;2055;50.074;8.436;2023-04-15T08:21:57;1.73;;;1.43;;
4080;SDS011;2055;50.074;8.436;2023-04-15T08:24:23;1.73;;;1.60;;
4080;SDS011;2055;50.074;8.436;2023-04-15T08:26:50;0.80;;;0.70;;
4080;SDS011;2055;50.074;8.436;2023-04-15T08:29:16;2.40;;;1.85;;
4080;SDS011;2055;50.074;8.436;2023-04-15T08:31:41;0.90;;;0.80;;
4080;SDS011;2055;50.074;8.436;2023-04-15T08:34:07;0.90;;;0.80;;
4080;SDS011;2055;50.074;8.436;2023-04-15T08:36:33;0.90;;;0.80;;
4080;SDS011;2055;50.074;8.436;2023-04-15T08:38:59;6.27;;;2.30;;
4080;SDS011;2055;50.074;8.436;2023-04-15T08:41:28;0.80;;;0.70;;
4080;SDS011;2055;50.074;8.436;2023-04-15T08:44:04;0.90;;;0.80;;
4080;SDS011;2055;50.074;8.436;2023-04-15T08:46:30;0.90;;;0.80;;
4080;SDS011;2055;50.074;8.436;2023-04-15T08:48:58;0.80;;;0.70;;
4080;SDS011;2055;50.074;8.436;2023-04-15T08:51:27;0.60;;;0.50;;
4080;SDS011;2055;50.074;8.436;2023-04-15T08:53:53;1.53;;;1.43;;
4080;SDS011;2055;50.074;8.436;2023-04-15T08:56:18;0.80;;;0.70;;
4080;SDS011;2055;50.074;8.436;2023-04-15T08:58:53;2.70;;;1.73;;
4080;SDS011;2055;50.074;8.436;2023-04-15T09:01:19;2.57;;;2.23;;
4080;SDS011;2055;50.074;8.436;2023-04-15T09:03:45;1.83;;;1.77;;
4080;SDS011;2055;50.074;8.436;2023-04-15T09:06:13;0.80;;;0.70;;
4080;SDS011;2055;50.074;8.436;2023-04-15T09:08:41;0.95;;;0.85;;
4080;SDS011;2055;50.074;8.436;2023-04-15T09:11:06;0.70;;;0.60;;
4080;SDS011;2055;50.074;8.436;2023-04-15T09:13:32;0.80;;;0.70;;
4080;SDS011;2055;50.074;8.436;2023-04-15T09:16:00;0.90;;;0.80;;
4080;SDS011;2055;50.074;8.436;2023-04-15T09:18:29;1.03;;;1.03;;
4080;SDS011;2055;50.074;8.436;2023-04-15T09:21:02;1.93;;;1.83;;
4080;SDS011;2055;50.074;8.436;2023-04-15T09:23:29;1.80;;;1.57;;
4080;SDS011;2055;50.074;8.436;2023-04-15T09:25:56;1.20;;;1.10;;
4080;SDS011;2055;50.074;8.436;2023-04-15T09:28:25;1.00;;;0.90;;
4080;SDS011;2055;50.074;8.436;2023-04-15T09:31:00;0.90;;;0.80;;
4080;SDS011;2055;50.074;8.436;2023-04-15T09:33:27;2.73;;;1.63;;
4080;SDS011;2055;50.074;8.436;2023-04-15T09:35:57;1.10;;;1.00;;
4080;SDS011;2055;50.074;8.436;2023-04-15T09:38:27;1.27;;;1.17;;
4080;SDS011;2055;50.074;8.436;2023-04-15T09:40:53;1.33;;;1.23;;
4080;SDS011;2055;50.074;8.436;2023-04-15T09:43:19;1.30;;;1.20;;
4080;SDS011;2055;50.074;8.436;2023-04-15T09:45:48;1.20;;;1.10;;
4080;SDS011;2055;50.074;8.436;2023-04-15T09:48:22;3.53;;;3.33;;
4080;SDS011;2055;50.074;8.436;2023-04-15T09:50:53;0.90;;;0.80;;
4080;SDS011;2055;50.074;8.436;2023-04-15T09:53:22;1.00;;;0.90;;
4080;SDS011;2055;50.074;8.436;2023-04-15T09:55:49;1.10;;;1.00;;
4080;SDS011;2055;50.074;8.436;2023-04-15T09:58:20;1.00;;;0.90;;
4080;SDS011;2055;50.074;8.436;2023-04-15T10:00:47;1.20;;;1.10;;
4080;SDS011;2055;50.074;8.436;2023-04-15T10:03:16;1.17;;;1.07;;
4080;SDS011;2055;50.074;8.436;2023-04-15T10:05:48;1.17;;;1.07;;
4080;SDS011;2055;50.074;8.436;2023-04-15T10:08:23;6.30;;;2.20;;
4080;SDS011;2055;50.074;8.436;2023-04-15T10:10:50;1.23;;;1.10;;
4080;SDS011;2055;50.074;8.436;2023-04-15T10:13:18;1.30;;;1.20;;
4080;SDS011;2055;50.074;8.436;2023-04-15T10:15:46;1.30;;;1.20;;
4080;SDS011;2055;50.074;8.436;2023-04-15T10:18:25;1.10;;;1.00;;
4080;SDS011;2055;50.074;8.436;2023-04-15T10:20:52;1.40;;;1.30;;
4080;SDS011;2055;50.074;8.436;2023-04-15T10:23:19;1.77;;;1.57;;
4080;SDS011;2055;50.074;8.436;2023-04-15T10:25:50;1.20;;;1.10;;
4080;SDS011;2055;50.074;8.436;2023-04-15T10:28:17;1.23;;;1.13;;
4080;SDS011;2055;50.074;8.436;2023-04-15T10:30:44;3.47;;;2.13;;
4080;SDS011;2055;50.074;8.436;2023-04-15T10:33:11;1.10;;;1.00;;
4080;SDS011;2055;50.074;8.436;2023-04-15T10:35:38;1.10;;;1.00;;
4080;SDS011;2055;50.074;8.436;2023-04-15T10:41:11;1.53;;;1.30;;
4080;SDS011;2055;50.074;8.436;2023-04-15T10:43:44;1.63;;;1.53;;
4080;SDS011;2055;50.074;8.436;2023-04-15T10:46:12;1.20;;;1.10;;
4080;SDS011;2055;50.074;8.436;2023-04-15T10:48:37;2.40;;;1.90;;
4080;SDS011;2055;50.074;8.436;2023-04-15T10:51:03;1.27;;;1.17;;
4080;SDS011;2055;50.074;8.436;2023-04-15T10:53:29;1.30;;;1.20;;
4080;SDS011;2055;50.074;8.436;2023-04-15T10:55:56;1.10;;;1.00;;
4080;SDS011;2055;50.074;8.436;2023-04-15T10:58:22;1.40;;;1.30;;
4080;SDS011;2055;50.074;8.436;2023-04-15T11:00:49;1.10;;;1.00;;
4080;SDS011;2055;50.074;8.436;2023-04-15T11:03:17;0.97;;;0.87;;
4080;SDS011;2055;50.074;8.436;2023-04-15T11:06:02;1.00;;;0.90;;
4080;SDS011;2055;50.074;8.436;2023-04-15T11:11:18;1.50;;;1.40;;
4080;SDS011;2055;50.074;8.436;2023-04-15T11:13:48;1.30;;;1.20;;
4080;SDS011;2055;50.074;8.436;2023-04-15T11:16:15;1.10;;;1.00;;
4080;SDS011;2055;50.074;8.436;2023-04-15T11:18:40;1.20;;;1.10;;
4080;SDS011;2055;50.074;8.436;2023-04-15T11:21:07;1.30;;;1.20;;
4080;SDS011;2055;50.074;8.436;2023-04-15T11:25:59;1.30;;;1.20;;
4080;SDS011;2055;50.074;8.436;2023-04-15T11:28:26;1.47;;;1.37;;
4080;SDS011;2055;50.074;8.436;2023-04-15T11:30:54;1.70;;;1.60;;
4080;SDS011;2055;50.074;8.436;2023-04-15T11:33:20;1.40;;;1.30;;
4080;SDS011;2055;50.074;8.436;2023-04-15T11:35:47;1.30;;;1.20;;
4080;SDS011;2055;50.074;8.436;2023-04-15T11:38:13;1.40;;;1.30;;
4080;SDS011;2055;50.074;8.436;2023-04-15T11:40:41;1.60;;;1.50;;
4080;SDS011;2055;50.074;8.436;2023-04-15T11:45:56;1.33;;;1.23;;
4080;SDS011;2055;50.074;8.436;2023-04-15T11:48:24;1.40;;;1.30;;
4080;SDS011;2055;50.074;8.436;2023-04-15T11:51:06;1.27;;;1.17;;
4080;SDS011;2055;50.074;8.436;2023-04-15T11:53:39;1.10;;;1.00;;
4080;SDS011;2055;50.074;8.436;2023-04-15T11:56:07;1.43;;;1.33;;
4080;SDS011;2055;50.074;8.436;2023-04-15T11:58:35;1.33;;;1.27;;
4080;SDS011;2055;50.074;8.436;2023-04-15T12:01:02;1.10;;;1.00;;
4080;SDS011;2055;50.074;8.436;2023-04-15T12:03:28;0.97;;;0.87;;
4080;SDS011;2055;50.074;8.436;2023-04-15T12:16:30;2.20;;;2.00;;
4080;SDS011;2055;50.074;8.436;2023-04-15T12:18:58;2.47;;;2.28;;
4080;SDS011;2055;50.074;8.436;2023-04-15T12:21:27;2.70;;;2.50;;
4080;SDS011;2055;50.074;8.436;2023-04-15T12:24:00;3.10;;;2.90;;
4080;SDS011;2055;50.074;8.436;2023-04-15T12:26:28;2.40;;;2.20;;
4080;SDS011;2055;50.074;8.436;2023-04-15T12:28:59;2.40;;;2.20;;
4080;SDS011;2055;50.074;8.436;2023-04-15T12:31:25;1.45;;;1.35;;
4080;SDS011;2055;50.074;8.436;2023-04-15T12:33:53;1.77;;;1.67;;
4080;SDS011;2055;50.074;8.436;2023-04-15T12:36:19;1.70;;;1.60;;
4080;SDS011;2055;50.074;8.436;2023-04-15T12:38:45;1.80;;;1.73;;
4080;SDS011;2055;50.074;8.436;2023-04-15T12:41:10;1.40;;;1.30;;
4080;SDS011;2055;50.074;8.436;2023-04-15T12:43:36;1.30;;;1.20;;
4080;SDS011;2055;50.074;8.436;2023-04-15T12:46:01;1.50;;;1.40;;
4080;SDS011;2055;50.074;8.436;2023-04-15T12:48:28;1.27;;;1.23;;
4080;SDS011;2055;50.074;8.436;2023-04-15T12:50:54;1.20;;;1.10;;
4080;SDS011;2055;50.074;8.436;2023-04-15T12:53:20;1.50;;;1.40;;
4080;SDS011;2055;50.074;8.436;2023-04-15T12:55:45;1.23;;;1.20;;
4080;SDS011;2055;50.074;8.436;2023-04-15T12:58:11;1.23;;;1.13;;
4080;SDS011;2055;50.074;8.436;2023-04-15T13:00:37;1.25;;;1.15;;
4080;SDS011;2055;50.074;8.436;2023-04-15T13:03:03;0.90;;;0.80;;
4080;SDS011;2055;50.074;8.436;2023-04-15T13:05:28;1.20;;;1.10;;
4080;SDS011;2055;50.074;8.436;2023-04-15T13:07:54;0.90;;;0.80;;
4080;SDS011;2055;50.074;8.436;2023-04-15T13:10:20;1.10;;;1.00;;
4080;SDS011;2055;50.074;8.436;2023-04-15T13:12:47;1.00;;;0.93;;
4080;SDS011;2055;50.074;8.436;2023-04-15T13:15:14;0.95;;;0.85;;
4080;SDS011;2055;50.074;8.436;2023-04-15T13:17:43;1.25;;;1.15;;
4080;SDS011;2055;50.074;8.436;2023-04-15T13:20:09;1.90;;;1.80;;
4080;SDS011;2055;50.074;8.436;2023-04-15T13:22:34;1.10;;;1.00;;
4080;SDS011;2055;50.074;8.436;2023-04-15T13:25:00;0.90;;;0.80;;
4080;SDS011;2055;50.074;8.436;2023-04-15T13:27:25;4.50;;;1.30;;
4080;SDS011;2055;50.074;8.436;2023-04-15T13:29:51;1.10;;;1.00;;
4080;SDS011;2055;50.074;8.436;2023-04-15T13:32:17;1.00;;;0.90;;
4080;SDS011;2055;50.074;8.436;2023-04-15T13:34:43;0.90;;;0.80;;
4080;SDS011;2055;50.074;8.436;2023-04-15T13:37:08;0.80;;;0.70;;
4080;SDS011;2055;50.074;8.436;2023-04-15T13:39:34;0.83;;;0.73;;
4080;SDS011;2055;50.074;8.436;2023-04-15T13:41:59;0.90;;;0.80;;
4080;SDS011;2055;50.074;8.436;2023-04-15T13:44:26;0.90;;;0.80;;
4080;SDS011;2055;50.074;8.436;2023-04-15T13:46:52;0.90;;;0.80;;
4080;SDS011;2055;50.074;8.436;2023-04-15T13:49:17;1.03;;;0.93;;
4080;SDS011;2055;50.074;8.436;2023-04-15T13:51:43;1.00;;;0.90;;
4080;SDS011;2055;50.074;8.436;2023-04-15T13:54:08;1.00;;;0.90;;
4080;SDS011;2055;50.074;8.436;2023-04-15T13:56:34;1.20;;;1.10;;
4080;SDS011;2055;50.074;8.436;2023-04-15T13:59:00;1.37;;;1.27;;
4080;SDS011;2055;50.074;8.436;2023-04-15T14:01:26;1.15;;;1.10;;
4080;SDS011;2055;50.074;8.436;2023-04-15T14:03:52;1.15;;;1.05;;
4080;SDS011;2055;50.074;8.436;2023-04-15T14:06:18;1.20;;;1.10;;
4080;SDS011;2055;50.074;8.436;2023-04-15T14:08:43;1.20;;;1.10;;
4080;SDS011;2055;50.074;8.436;2023-04-15T14:11:09;1.17;;;1.07;;
4080;SDS011;2055;50.074;8.436;2023-04-15T14:13:35;1.40;;;1.30;;
4080;SDS011;2055;50.074;8.436;2023-04-15T14:16:00;1.20;;;1.13;;
4080;SDS011;2055;50.074;8.436;2023-04-15T14:18:26;1.00;;;0.90;;
4080;SDS011;2055;50.074;8.436;2023-04-15T14:20:52;1.20;;;1.10;;
4080;SDS011;2055;50.074;8.436;2023-04-15T14:23:17;1.30;;;1.20;;
4080;SDS011;2055;50.074;8.436;2023-04-15T14:25:43;1.27;;;1.17;;
4080;SDS011;2055;50.074;8.436;2023-04-15T14:28:09;1.30;;;1.20;;
4080;SDS011;2055;50.074;8.436;2023-04-15T14:30:34;1.27;;;1.17;;
4080;SDS011;2055;50.074;8.436;2023-04-15T14:33:00;0.90;;;0.80;;
4080;SDS011;2055;50.074;8.436;2023-04-15T14:35:25;1.23;;;1.13;;
4080;SDS011;2055;50.074;8.436;2023-04-15T14:37:52;0.90;;;0.80;;
4080;SDS011;2055;50.074;8.436;2023-04-15T14:40:18;1.00;;;0.90;;
4080;SDS011;2055;50.074;8.436;2023-04-15T14:42:44;1.40;;;1.30;;
4080;SDS011;2055;50.074;8.436;2023-04-15T14:45:10;1.15;;;1.05;;
4080;SDS011;2055;50.074;8.436;2023-04-15T14:47:36;3.57;;;1.97;;
4080;SDS011;2055;50.074;8.436;2023-04-15T14:50:01;1.67;;;1.53;;
4080;SDS011;2055;50.074;8.436;2023-04-15T14:52:27;0.80;;;0.70;;
4080;SDS011;2055;50.074;8.436;2023-04-15T14:54:54;0.90;;;0.80;;
4080;SDS011;2055;50.074;8.436;2023-04-15T14:57:20;0.80;;;0.70;;
4080;SDS011;2055;50.074;8.436;2023-04-15T14:59:45;1.00;;;0.90;;
4080;SDS011;2055;50.074;8.436;2023-04-15T15:02:11;1.10;;;1.00;;
4080;SDS011;2055;50.074;8.436;2023-04-15T15:04:37;0.90;;;0.80;;
4080;SDS011;2055;50.074;8.436;2023-04-15T15:07:04;0.80;;;0.70;;
4080;SDS011;2055;50.074;8.436;2023-04-15T15:09:30;1.27;;;0.90;;
4080;SDS011;2055;50.074;8.436;2023-04-15T15:11:56;0.80;;;0.70;;
4080;SDS011;2055;50.074;8.436;2023-04-15T15:14:21;0.80;;;0.70;;
4080;SDS011;2055;50.074;8.436;2023-04-15T15:16:47;0.70;;;0.60;;
4080;SDS011;2055;50.074;8.436;2023-04-15T15:19:12;0.80;;;0.70;;
4080;SDS011;2055;50.074;8.436;2023-04-15T15:21:38;1.30;;;1.20;;
4080;SDS011;2055;50.074;8.436;2023-04-15T15:24:04;1.57;;;1.47;;
4080;SDS011;2055;50.074;8.436;2023-04-15T15:26:30;3.67;;;2.33;;
4080;SDS011;2055;50.074;8.436;2023-04-15T15:28:55;1.23;;;1.00;;
4080;SDS011;2055;50.074;8.436;2023-04-15T15:31:21;0.80;;;0.70;;